Time;durP1;ratioP1;P1;durP2;ratioP2;P2;SDS_P1;SDS_P2;PMS_P1;PMS_P2;Temp;Humidity;BMP_temperature;BMP_pressure;BME280_temperature;BME280_humidity;BME280_pressure;Samples;Min_cycle;Max_cycle;Signal;HPM_P1;HPM_P2
2023/04/08 00:00:43;;;;;;;21.42;10.32;;;8.80;99.90;;;;;;5057780;28;20017;-43
2023/04/08 00:03:09;;;;;;;21.20;10.25;;;8.80;99.90;;;;;;5072875;28;20485;-45
2023/04/08 00:05:35;;;;;;;24.90;11.05;;;8.70;99.90;;;;;;5072708;28;20020;-43
2023/04/08 00:08:00;;;;;;;20.08;10.55;;;8.70;99.90;;;;;;5072313;28;20036;-42
2023/04/08 00:10:26;;;;;;;21.33;10.50;;;8.70;99.90;;;;;;5066026;28;20385;-43
2023/04/08 00:12:51;;;;;;;22.63;9.88;;;8.70;99.90;;;;;;5062362;28;20025;-43
2023/04/08 00:15:17;;;;;;;22.90;10.00;;;8.60;99.90;;;;;;5052522;28;20033;-43
2023/04/08 00:17:44;;;;;;;21.45;9.65;;;8.60;99.90;;;;;;5056697;28;20028;-43
2023/04/08 00:20:10;;;;;;;25.85;9.75;;;8.60;99.90;;;;;;5070761;28;20024;-58
2023/04/08 00:22:36;;;;;;;20.35;9.07;;;8.70;99.90;;;;;;5072737;28;20464;-42
2023/04/08 00:25:05;;;;;;;25.23;10.32;;;8.60;99.90;;;;;;5072518;28;20082;-42
2023/04/08 00:27:31;;;;;;;26.58;10.68;;;8.60;99.90;;;;;;5072656;28;20047;-45
2023/04/08 00:29:58;;;;;;;28.88;9.77;;;8.60;99.90;;;;;;5072473;28;20023;-44
2023/04/08 00:32:24;;;;;;;26.27;9.13;;;8.50;99.90;;;;;;5071054;28;20040;-42
2023/04/08 00:34:50;;;;;;;22.58;10.65;;;8.50;99.90;;;;;;5053819;28;20358;-45
2023/04/08 00:37:16;;;;;;;25.45;10.05;;;8.40;99.90;;;;;;5052379;28;20469;-43
2023/04/08 00:39:42;;;;;;;21.38;10.63;;;8.40;99.90;;;;;;5052646;28;20068;-63
2023/04/08 00:42:08;;;;;;;26.58;9.95;;;8.40;99.90;;;;;;5052093;28;20044;-40
2023/04/08 00:44:34;;;;;;;26.58;10.68;;;8.40;99.90;;;;;;5077275;28;20404;-46
2023/04/08 00:47:00;;;;;;;30.08;11.80;;;8.40;99.90;;;;;;5092745;28;20020;-42
2023/04/08 00:49:26;;;;;;;20.80;9.90;;;8.40;99.90;;;;;;5066889;28;20507;-43
2023/04/08 00:51:53;;;;;;;26.65;10.80;;;8.40;99.90;;;;;;5052497;28;20024;-42
2023/04/08 00:54:18;;;;;;;21.33;10.37;;;8.30;99.90;;;;;;5052046;28;20397;-41
2023/04/08 00:56:44;;;;;;;22.67;8.95;;;8.40;99.90;;;;;;5052246;28;20017;-43
2023/04/08 00:59:10;;;;;;;19.92;9.18;;;8.40;99.90;;;;;;5050855;28;20018;-32
2023/04/08 01:01:55;;;;;;;41.00;9.73;;;8.40;99.90;;;;;;5057251;28;20496;-33
2023/04/08 01:05:04;;;;;;;33.95;10.02;;;8.50;99.90;;;;;;5074619;28;20506;-37
2023/04/08 01:07:36;;;;;;;19.83;8.65;;;8.40;99.90;;;;;;5065114;28;20112;-34
2023/04/08 01:10:26;;;;;;;22.25;8.82;;;8.50;99.90;;;;;;5075858;28;20025;-32
2023/04/08 01:13:07;;;;;;;35.35;9.77;;;8.50;99.90;;;;;;5075810;28;20473;-71
2023/04/08 01:15:36;;;;;;;19.23;8.88;;;8.50;99.90;;;;;;5075742;28;20484;-33
2023/04/08 01:18:06;;;;;;;31.05;9.60;;;8.40;99.90;;;;;;5071464;28;20033;-35
2023/04/08 01:20:32;;;;;;;22.40;9.23;;;8.40;99.90;;;;;;5072082;28;20491;-43
2023/04/08 01:23:00;;;;;;;20.75;7.95;;;8.30;99.90;;;;;;5064000;28;20087;-32
2023/04/08 01:25:34;;;;;;;35.72;9.00;;;8.40;99.90;;;;;;5072049;28;20489;-32
2023/04/08 01:28:04;;;;;;;39.35;9.27;;;8.40;99.90;;;;;;5075315;28;20029;-35
2023/04/08 01:30:32;;;;;;;28.85;10.25;;;8.40;99.90;;;;;;5073995;28;20033;-37
2023/04/08 01:33:00;;;;;;;36.80;8.85;;;8.30;99.90;;;;;;5074041;28;20496;-35
2023/04/08 01:35:25;;;;;;;32.60;6.70;;;8.20;99.90;;;;;;5074347;28;20028;-39
2023/04/08 01:37:53;;;;;;;17.33;7.78;;;8.20;99.90;;;;;;5075091;28;20021;-32
2023/04/08 01:40:19;;;;;;;38.53;8.25;;;8.20;99.90;;;;;;5074995;28;20504;-34
2023/04/08 01:42:49;;;;;;;30.90;9.75;;;8.10;99.90;;;;;;5074134;28;20066;-38
2023/04/08 01:45:16;;;;;;;77.65;9.75;;;8.00;99.90;;;;;;5074890;28;20104;-35
2023/04/08 01:47:46;;;;;;;22.02;8.40;;;7.90;99.90;;;;;;5072962;28;20029;-37
2023/04/08 01:50:12;;;;;;;16.55;8.20;;;7.90;99.90;;;;;;5075106;28;20397;-32
2023/04/08 01:52:39;;;;;;;20.85;9.00;;;8.00;99.90;;;;;;5075364;28;20482;-33
2023/04/08 01:55:05;;;;;;;17.77;8.38;;;8.10;99.90;;;;;;5074591;28;20436;-34
2023/04/08 01:57:34;;;;;;;16.60;7.80;;;8.10;99.90;;;;;;5074717;28;20103;-34
2023/04/08 02:00:02;;;;;;;55.95;8.93;;;8.10;99.90;;;;;;5074943;28;20035;-31
2023/04/08 02:02:30;;;;;;;14.50;7.22;;;8.10;99.90;;;;;;5074908;28;20469;-33
2023/04/08 02:04:56;;;;;;;23.08;8.02;;;8.10;99.90;;;;;;5073539;28;20404;-36
2023/04/08 02:07:22;;;;;;;20.75;8.23;;;8.10;99.90;;;;;;5074538;28;20024;-32
2023/04/08 02:09:48;;;;;;;17.15;8.25;;;8.00;99.90;;;;;;5075036;28;20389;-31
2023/04/08 02:12:14;;;;;;;15.50;7.97;;;8.00;99.90;;;;;;5065855;28;20052;-31
2023/04/08 02:14:40;;;;;;;15.57;8.07;;;7.90;99.90;;;;;;5053132;28;20492;-35
2023/04/08 02:17:12;;;;;;;18.90;8.85;;;8.00;99.90;;;;;;5054367;28;20018;-38
2023/04/08 02:19:51;;;;;;;15.23;7.60;;;8.10;99.90;;;;;;5065613;28;20036;-34
2023/04/08 02:22:41;;;;;;;17.95;8.23;;;8.10;99.90;;;;;;5074344;28;20017;-34
2023/04/08 02:25:15;;;;;;;18.50;8.38;;;8.00;99.90;;;;;;5065875;28;20070;-31
2023/04/08 02:27:42;;;;;;;31.02;8.20;;;8.10;99.90;;;;;;5088551;28;20028;-32
2023/04/08 02:30:10;;;;;;;39.25;8.73;;;8.00;99.90;;;;;;5089005;28;20036;-31
2023/04/08 02:32:36;;;;;;;15.63;8.35;;;8.00;99.90;;;;;;5072669;28;20044;-38
2023/04/08 02:35:04;;;;;;;13.80;7.05;;;7.90;99.90;;;;;;5072666;28;20028;-40
2023/04/08 02:37:30;;;;;;;15.95;7.75;;;7.90;99.90;;;;;;5073992;28;20025;-40
2023/04/08 02:39:57;;;;;;;17.15;8.45;;;7.90;99.90;;;;;;5073969;28;20480;-45
2023/04/08 02:42:22;;;;;;;17.40;7.80;;;7.90;99.90;;;;;;5073749;28;20056;-35
2023/04/08 02:44:48;;;;;;;20.73;8.15;;;7.90;99.90;;;;;;5074309;28;20021;-32
2023/04/08 02:47:14;;;;;;;22.52;7.00;;;7.90;99.90;;;;;;5073743;28;20055;-39
2023/04/08 02:49:39;;;;;;;41.67;7.55;;;7.90;99.90;;;;;;5072819;28;20064;-34
2023/04/08 02:52:05;;;;;;;41.63;7.97;;;7.80;99.90;;;;;;5066220;28;20037;-33
2023/04/08 02:54:31;;;;;;;28.23;7.18;;;7.80;99.90;;;;;;5073320;28;20119;-35
2023/04/08 02:56:56;;;;;;;24.13;6.93;;;7.70;99.90;;;;;;5073577;28;20028;-37
2023/04/08 02:59:22;;;;;;;33.35;6.60;;;7.70;99.90;;;;;;5073550;28;20388;-35
2023/04/08 03:01:48;;;;;;;14.20;7.68;;;7.70;99.90;;;;;;5074032;28;20381;-35
2023/04/08 03:04:14;;;;;;;12.95;6.32;;;7.60;99.90;;;;;;5072282;28;20028;-34
2023/04/08 03:06:39;;;;;;;16.67;5.75;;;7.60;99.90;;;;;;5073399;28;20032;-32
2023/04/08 03:09:06;;;;;;;11.93;6.00;;;7.60;99.90;;;;;;5073401;28;20036;-32
2023/04/08 03:11:31;;;;;;;19.33;6.47;;;7.50;99.90;;;;;;5073543;28;20037;-38
2023/04/08 03:13:57;;;;;;;12.10;6.55;;;7.50;99.90;;;;;;5071961;28;20385;-39
2023/04/08 03:16:23;;;;;;;12.48;7.07;;;7.50;99.90;;;;;;5072835;28;20113;-33
2023/04/08 03:18:50;;;;;;;15.95;7.90;;;7.40;99.90;;;;;;5072758;28;20027;-32
2023/04/08 03:21:15;;;;;;;20.30;6.35;;;7.50;99.90;;;;;;5061738;28;20485;-32
2023/04/08 03:23:41;;;;;;;19.58;7.80;;;7.50;99.90;;;;;;5073335;28;20013;-40
2023/04/08 03:26:07;;;;;;;11.20;5.90;;;7.50;99.90;;;;;;5072693;28;20465;-35
2023/04/08 03:28:32;;;;;;;27.17;7.68;;;7.60;99.90;;;;;;5072965;28;20373;-37
2023/04/08 03:30:59;;;;;;;17.42;8.02;;;7.50;99.90;;;;;;5073028;28;20503;-34
2023/04/08 03:33:25;;;;;;;13.20;6.97;;;7.50;99.90;;;;;;5072213;28;20024;-33
2023/04/08 03:35:52;;;;;;;16.70;8.60;;;7.60;99.90;;;;;;5073439;28;20024;-35
2023/04/08 03:38:17;;;;;;;16.83;7.97;;;7.70;99.90;;;;;;5072945;28;20099;-34
2023/04/08 03:40:43;;;;;;;22.33;8.90;;;7.70;99.90;;;;;;5071675;28;20160;-33
2023/04/08 03:43:10;;;;;;;23.10;8.40;;;7.70;99.90;;;;;;5073008;28;20013;-37
2023/04/08 03:45:36;;;;;;;15.35;8.10;;;7.70;99.90;;;;;;5072882;28;20025;-35
2023/04/08 03:48:02;;;;;;;31.77;9.23;;;7.80;99.90;;;;;;5072861;28;20526;-34
2023/04/08 03:50:27;;;;;;;22.77;10.05;;;7.80;99.90;;;;;;5071880;28;20112;-32
2023/04/08 03:52:53;;;;;;;18.73;9.60;;;7.70;99.90;;;;;;5073652;28;20098;-33
2023/04/08 03:55:19;;;;;;;29.58;10.05;;;7.80;99.90;;;;;;5072499;28;20044;-31
2023/04/08 03:57:45;;;;;;;31.38;10.05;;;7.80;99.90;;;;;;5071489;28;20384;-32
2023/04/08 04:00:11;;;;;;;25.00;10.95;;;7.90;99.90;;;;;;5072993;28;20017;-34
2023/04/08 04:02:36;;;;;;;21.75;10.05;;;7.90;99.90;;;;;;5072673;28;20028;-34
2023/04/08 04:05:02;;;;;;;20.02;9.55;;;7.90;99.90;;;;;;5071484;28;20032;-34
2023/04/08 04:07:27;;;;;;;19.25;11.05;;;7.80;99.90;;;;;;5072692;28;20388;-33
2023/04/08 04:09:55;;;;;;;23.23;10.30;;;7.90;99.90;;;;;;5073194;28;20061;-34
2023/04/08 04:12:21;;;;;;;;;;;8.00;99.90;;;;;;5072268;28;20067;-38
2023/04/08 04:14:47;;;;;;;18.70;9.55;;;8.00;99.90;;;;;;5072509;28;20269;-34
2023/04/08 04:17:13;;;;;;;22.58;9.73;;;8.10;99.90;;;;;;5072877;28;20103;-36
2023/04/08 04:19:38;;;;;;;19.75;10.25;;;8.10;99.90;;;;;;5071375;28;20051;-34
2023/04/08 04:22:04;;;;;;;51.10;11.95;;;8.10;99.90;;;;;;5072518;28;20383;-32
2023/04/08 04:24:29;;;;;;;69.78;11.65;;;8.10;99.90;;;;;;5072517;28;20031;-33
2023/04/08 04:26:55;;;;;;;48.95;12.98;;;8.00;99.90;;;;;;5072334;28;20032;-33
2023/04/08 04:29:21;;;;;;;33.10;11.68;;;8.00;99.90;;;;;;5072479;28;20367;-34
2023/04/08 04:31:46;;;;;;;53.53;12.05;;;8.00;99.90;;;;;;5072483;28;20057;-33
2023/04/08 04:34:12;;;;;;;38.28;13.48;;;8.00;99.90;;;;;;5071216;28;20020;-44
2023/04/08 04:36:38;;;;;;;26.05;11.80;;;8.10;99.90;;;;;;5071087;28;20033;-36
2023/04/08 04:39:03;;;;;;;32.42;12.85;;;8.10;99.90;;;;;;5076215;28;20027;-32
2023/04/08 04:41:29;;;;;;;39.90;13.45;;;8.10;99.90;;;;;;5076157;28;20029;-32
2023/04/08 04:43:55;;;;;;;40.13;13.00;;;8.20;99.90;;;;;;5092715;28;20020;-31
2023/04/08 04:46:20;;;;;;;39.53;13.45;;;8.20;99.90;;;;;;5080539;28;20032;-37
2023/04/08 04:48:46;;;;;;;33.65;14.05;;;8.20;99.90;;;;;;5075974;28;20024;-33
2023/04/08 04:51:12;;;;;;;40.38;13.32;;;8.20;99.90;;;;;;5074707;28;20082;-32
2023/04/08 04:53:37;;;;;;;35.08;14.60;;;8.30;99.90;;;;;;5075234;28;20028;-35
2023/04/08 04:56:03;;;;;;;33.08;15.18;;;8.30;99.90;;;;;;5075646;28;20049;-35
2023/04/08 04:58:29;;;;;;;31.35;14.18;;;8.30;99.90;;;;;;5076166;28;20465;-34
2023/04/08 05:00:55;;;;;;;33.40;15.18;;;8.30;99.90;;;;;;5076640;28;20028;-35
2023/04/08 05:03:21;;;;;;;53.38;14.38;;;8.30;99.90;;;;;;5075772;28;20021;-33
2023/04/08 05:05:53;;;;;;;27.23;14.27;;;8.30;99.90;;;;;;5074802;28;20085;-36
2023/04/08 05:08:20;;;;;;;33.15;14.35;;;8.40;99.90;;;;;;5058185;28;20116;-32
2023/04/08 05:10:46;;;;;;;44.17;13.70;;;8.40;99.90;;;;;;5055645;28;20025;-39
2023/04/08 05:13:11;;;;;;;67.88;15.38;;;8.30;99.90;;;;;;5055654;28;20025;-33
2023/04/08 05:15:37;;;;;;;32.63;14.95;;;8.30;99.90;;;;;;5055739;28;20479;-32
2023/04/08 05:18:03;;;;;;;57.67;15.68;;;8.30;99.90;;;;;;5074457;28;20077;-32
2023/04/08 05:20:29;;;;;;;49.28;15.63;;;8.20;99.90;;;;;;5074271;28;20025;-32
2023/04/08 05:22:54;;;;;;;56.33;16.35;;;8.20;99.90;;;;;;5075376;28;20020;-32
2023/04/08 05:25:20;;;;;;;33.75;15.38;;;8.20;99.90;;;;;;5074209;28;20021;-39
2023/04/08 05:27:46;;;;;;;30.80;14.77;;;8.10;99.90;;;;;;5075351;28;20029;-33
2023/04/08 05:30:12;;;;;;;42.75;16.42;;;8.10;99.90;;;;;;5075255;28;20082;-32
2023/04/08 05:32:37;;;;;;;52.28;16.10;;;8.10;99.90;;;;;;5075235;28;20036;-35
2023/04/08 05:35:03;;;;;;;39.10;17.02;;;8.20;99.90;;;;;;5074469;28;20417;-34
2023/04/08 05:37:30;;;;;;;40.95;16.65;;;8.20;99.90;;;;;;5073774;28;20021;-31
2023/04/08 05:39:55;;;;;;;46.88;16.98;;;8.20;99.90;;;;;;5075102;28;20048;-32
2023/04/08 05:42:21;;;;;;;40.20;15.93;;;8.20;99.90;;;;;;5075036;28;20111;-31
2023/04/08 05:44:47;;;;;;;60.25;16.23;;;8.20;99.90;;;;;;5074905;28;20024;-36
2023/04/08 05:47:13;;;;;;;38.85;14.95;;;8.20;99.90;;;;;;5074808;28;20028;-32
2023/04/08 05:49:39;;;;;;;38.85;15.18;;;8.30;99.90;;;;;;5072862;28;20039;-32
2023/04/08 05:52:05;;;;;;;31.10;15.18;;;8.30;99.90;;;;;;5075455;28;20074;-38
2023/04/08 05:54:31;;;;;;;33.53;16.17;;;8.20;99.90;;;;;;5074514;28;20509;-37
2023/04/08 05:56:57;;;;;;;49.75;17.13;;;8.20;99.90;;;;;;5074737;28;20021;-32
2023/04/08 05:59:22;;;;;;;32.78;15.15;;;8.10;99.90;;;;;;5074220;28;20048;-36
2023/04/08 06:01:48;;;;;;;40.15;15.88;;;8.10;99.90;;;;;;5073448;28;20017;-36
2023/04/08 06:04:13;;;;;;;43.65;15.52;;;8.10;99.90;;;;;;5074660;28;20491;-31
2023/04/08 06:06:40;;;;;;;33.45;14.90;;;8.10;99.90;;;;;;5073627;28;20388;-32
2023/04/08 06:09:05;;;;;;;51.17;15.95;;;8.10;99.90;;;;;;5075158;28;20019;-33
2023/04/08 06:11:31;;;;;;;31.42;15.80;;;8.10;99.90;;;;;;5074751;28;20500;-33
2023/04/08 06:13:57;;;;;;;45.75;14.73;;;8.10;99.90;;;;;;5073745;28;20104;-37
2023/04/08 06:16:22;;;;;;;35.55;16.27;;;8.00;99.90;;;;;;5074335;28;20025;-39
2023/04/08 06:18:48;;;;;;;34.60;15.73;;;8.10;99.90;;;;;;5074374;28;20054;-33
2023/04/08 06:21:13;;;;;;;34.67;14.77;;;8.00;99.90;;;;;;5073067;28;20477;-46
2023/04/08 06:23:39;;;;;;;34.95;15.50;;;8.00;99.90;;;;;;5073873;28;20017;-32
2023/04/08 06:26:05;;;;;;;32.60;14.15;;;8.00;99.90;;;;;;5075031;28;20024;-34
2023/04/08 06:28:31;;;;;;;28.33;13.00;;;8.00;99.90;;;;;;5074189;28;20492;-35
2023/04/08 06:30:58;;;;;;;31.15;15.10;;;8.00;99.90;;;;;;5074780;28;20500;-34
2023/04/08 06:33:23;;;;;;;31.20;14.57;;;8.00;99.90;;;;;;5073995;28;20062;-32
2023/04/08 06:35:49;;;;;;;26.08;14.65;;;8.00;99.90;;;;;;5071502;28;20016;-32
2023/04/08 06:38:15;;;;;;;27.08;14.05;;;8.00;99.90;;;;;;5062046;28;20029;-39
2023/04/08 06:40:40;;;;;;;26.17;13.38;;;8.00;99.90;;;;;;5053927;28;20029;-32
2023/04/08 06:43:06;;;;;;;23.55;13.32;;;8.10;99.90;;;;;;5071441;28;20036;-35
2023/04/08 06:45:33;;;;;;;23.40;12.52;;;8.00;99.90;;;;;;5073824;28;20070;-32
2023/04/08 06:47:59;;;;;;;20.70;12.15;;;8.00;99.90;;;;;;5072661;28;20033;-35
2023/04/08 06:50:24;;;;;;;20.80;10.88;;;7.90;99.90;;;;;;5068842;28;20505;-32
2023/04/08 06:52:50;;;;;;;17.55;10.60;;;7.90;99.90;;;;;;5072968;28;20222;-35
2023/04/08 06:55:16;;;;;;;19.90;11.35;;;7.90;99.90;;;;;;5076963;28;20048;-35
2023/04/08 06:57:41;;;;;;;17.73;10.43;;;7.90;99.90;;;;;;5065922;28;20021;-35
2023/04/08 07:00:08;;;;;;;18.42;11.07;;;7.90;99.90;;;;;;5069356;28;20028;-34
2023/04/08 07:02:34;;;;;;;17.17;10.18;;;7.90;99.90;;;;;;5072909;28;20115;-40
2023/04/08 07:04:59;;;;;;;19.45;9.63;;;7.80;99.90;;;;;;5069429;28;20119;-35
2023/04/08 07:07:25;;;;;;;18.05;9.50;;;7.70;99.90;;;;;;5061833;28;20107;-32
2023/04/08 07:09:51;;;;;;;16.88;9.25;;;7.70;99.90;;;;;;5067404;28;20059;-35
2023/04/08 07:12:17;;;;;;;17.45;9.65;;;7.80;99.90;;;;;;5072487;28;20052;-32
2023/04/08 07:14:42;;;;;;;24.92;10.55;;;7.90;99.90;;;;;;5072317;28;20456;-40
2023/04/08 07:17:08;;;;;;;11.68;8.32;;;7.90;99.90;;;;;;5071195;28;20445;-36
2023/04/08 07:19:34;;;;;;;13.90;8.38;;;7.90;99.90;;;;;;5072952;28;20025;-35
2023/04/08 07:22:00;;;;;;;18.38;9.85;;;7.90;99.90;;;;;;5072858;28;20021;-32
2023/04/08 07:24:26;;;;;;;12.52;8.00;;;8.00;99.90;;;;;;5073073;28;20472;-37
2023/04/08 07:26:54;;;;;;;16.88;9.35;;;8.10;99.90;;;;;;5069765;28;20091;-38
2023/04/08 07:29:20;;;;;;;20.05;9.75;;;8.20;99.90;;;;;;5064877;28;20370;-39
2023/04/08 07:31:45;;;;;;;14.23;8.82;;;8.40;99.90;;;;;;5070743;28;20028;-33
2023/04/08 07:34:11;;;;;;;17.55;9.40;;;8.50;99.90;;;;;;5071727;28;20024;-33
2023/04/08 07:36:37;;;;;;;13.25;8.98;;;8.50;99.90;;;;;;5072850;28;20028;-35
2023/04/08 07:39:03;;;;;;;15.65;8.40;;;8.50;99.90;;;;;;5065792;28;20024;-35
2023/04/08 07:41:28;;;;;;;13.85;9.38;;;8.60;99.90;;;;;;5069619;28;20031;-37
2023/04/08 07:43:54;;;;;;;15.32;8.75;;;8.80;99.90;;;;;;5067208;28;20013;-33
2023/04/08 07:46:20;;;;;;;14.52;8.95;;;8.80;99.90;;;;;;5067237;28;20027;-37
2023/04/08 07:48:46;;;;;;;16.02;8.82;;;8.90;99.90;;;;;;5064693;28;20139;-37
2023/04/08 07:51:12;;;;;;;13.93;8.40;;;8.90;99.90;;;;;;5069947;28;20043;-39
2023/04/08 07:53:39;;;;;;;12.05;8.07;;;9.00;99.90;;;;;;5071080;28;20465;-38
2023/04/08 07:56:11;;;;;;;16.95;9.55;;;9.10;99.90;;;;;;5070890;28;20036;-35
2023/04/08 07:58:36;;;;;;;15.70;9.75;;;9.10;99.90;;;;;;5052988;28;20461;-39
2023/04/08 08:01:02;;;;;;;15.55;8.65;;;9.20;99.90;;;;;;5053027;28;20013;-35
2023/04/08 08:03:28;;;;;;;14.88;9.38;;;9.30;99.90;;;;;;5059037;28;20021;-38
2023/04/08 08:05:54;;;;;;;16.40;8.95;;;9.40;99.90;;;;;;5071926;28;20103;-36
2023/04/08 08:08:19;;;;;;;14.65;8.73;;;9.50;99.90;;;;;;5069678;28;20025;-33
2023/04/08 08:10:45;;;;;;;10.55;8.57;;;9.50;99.90;;;;;;5057765;28;20024;-33
2023/04/08 08:13:13;;;;;;;14.65;8.45;;;9.60;99.90;;;;;;5060536;28;20500;-45
2023/04/08 08:15:39;;;;;;;14.52;8.68;;;9.80;99.90;;;;;;5066750;28;20024;-38
2023/04/08 08:18:05;;;;;;;16.27;8.13;;;9.80;99.90;;;;;;5076476;28;20469;-36
2023/04/08 08:20:31;;;;;;;12.07;8.02;;;9.80;99.90;;;;;;5076438;28;20070;-35
2023/04/08 08:22:56;;;;;;;14.90;8.85;;;9.90;99.90;;;;;;5067727;28;20116;-39
2023/04/08 08:25:22;;;;;;;12.75;8.07;;;9.90;99.90;;;;;;5075211;28;20020;-39
2023/04/08 08:27:47;;;;;;;11.27;7.40;;;9.90;99.90;;;;;;5061909;28;20028;-37
2023/04/08 08:30:15;;;;;;;11.85;7.95;;;9.90;99.90;;;;;;5076351;28;20024;-41
2023/04/08 08:32:40;;;;;;;11.27;7.35;;;10.00;99.90;;;;;;5066268;28;20449;-37
2023/04/08 08:35:07;;;;;;;11.93;7.07;;;10.10;99.90;;;;;;5061561;28;20035;-34
2023/04/08 08:37:32;;;;;;;12.82;8.13;;;10.20;99.90;;;;;;5060355;28;20543;-36
2023/04/08 08:39:58;;;;;;;12.35;8.02;;;10.20;99.90;;;;;;5059091;28;20045;-33
2023/04/08 08:42:24;;;;;;;11.07;7.15;;;10.30;99.90;;;;;;5064778;28;20032;-37
2023/04/08 08:44:50;;;;;;;15.23;7.40;;;10.40;99.90;;;;;;5075081;28;20036;-38
2023/04/08 08:47:17;;;;;;;13.15;7.10;;;10.40;99.90;;;;;;5070662;28;20498;-35
2023/04/08 08:49:44;;;;;;;12.35;7.05;;;10.50;99.90;;;;;;5070760;28;20465;-39
2023/04/08 08:52:10;;;;;;;11.27;7.38;;;10.40;99.90;;;;;;5061211;28;20024;-38
2023/04/08 08:54:36;;;;;;;12.82;7.63;;;10.50;99.90;;;;;;5055057;28;20037;-39
2023/04/08 08:57:02;;;;;;;9.77;6.82;;;10.60;99.90;;;;;;5054387;28;20025;-35
2023/04/08 08:59:28;;;;;;;10.90;6.80;;;10.80;99.90;;;;;;5058843;28;20024;-35
2023/04/08 09:01:53;;;;;;;10.88;7.30;;;11.00;99.90;;;;;;5074575;28;20020;-37
2023/04/08 09:04:21;;;;;;;12.18;7.30;;;11.00;99.90;;;;;;5064458;28;20024;-38
2023/04/08 09:07:07;;;;;;;10.63;7.25;;;11.10;99.90;;;;;;5073954;28;20024;-34
2023/04/08 09:09:48;;;;;;;11.82;7.05;;;11.10;99.90;;;;;;5075222;28;20059;-33
2023/04/08 09:12:14;;;;;;;11.35;6.82;;;11.30;99.90;;;;;;5068427;28;20384;-35
2023/04/08 09:14:39;;;;;;;11.02;6.72;;;11.40;99.90;;;;;;5069460;28;20032;-35
2023/04/08 09:17:06;;;;;;;12.70;8.05;;;11.40;99.90;;;;;;5067804;28;20082;-39
2023/04/08 09:19:31;;;;;;;11.32;7.22;;;11.40;99.90;;;;;;5064216;28;20032;-41
2023/04/08 09:22:10;;;;;;;10.40;7.22;;;11.50;99.90;;;;;;5068169;28;20396;-40
2023/04/08 09:24:37;;;;;;;10.68;6.72;;;11.70;99.90;;;;;;5062225;28;20021;-33
2023/04/08 09:27:05;;;;;;;10.60;7.35;;;11.80;99.90;;;;;;5067771;28;20473;-34
2023/04/08 09:29:32;;;;;;;9.18;7.15;;;11.90;99.90;;;;;;5058157;28;20436;-34
2023/04/08 09:31:59;;;;;;;13.63;6.93;;;11.90;99.90;;;;;;5070020;28;20016;-33
2023/04/08 09:34:28;;;;;;;10.05;6.57;;;11.80;99.90;;;;;;5069169;28;20069;-38
2023/04/08 09:36:55;;;;;;;12.13;7.75;;;12.00;99.90;;;;;;5070822;28;20051;-37
2023/04/08 09:39:20;;;;;;;14.13;7.05;;;12.30;99.90;;;;;;5072238;28;20071;-34
2023/04/08 09:41:50;;;;;;;10.32;7.10;;;12.40;99.90;;;;;;5062434;28;20020;-36
2023/04/08 09:44:19;;;;;;;9.82;6.20;;;12.40;99.90;;;;;;5074893;28;20025;-36
2023/04/08 09:47:00;;;;;;;12.70;7.60;;;12.60;99.90;;;;;;5074854;28;20095;-33
2023/04/08 09:49:50;;;;;;;10.23;7.00;;;12.70;99.90;;;;;;5061448;28;20032;-33
2023/04/08 09:52:46;;;;;;;10.75;7.13;;;12.80;99.90;;;;;;5055790;28;20485;-34
2023/04/08 09:55:19;;;;;;;9.23;6.53;;;12.90;99.90;;;;;;5056940;28;20497;-34
2023/04/08 09:57:50;;;;;;;11.55;7.10;;;13.00;99.90;;;;;;5069952;28;20073;-34
2023/04/08 10:00:17;;;;;;;19.42;7.47;;;12.90;99.90;;;;;;5063376;28;20052;-35
2023/04/08 10:03:14;;;;;;;9.18;6.53;;;13.00;99.90;;;;;;5074694;28;20093;-36
2023/04/08 10:05:41;;;;;;;12.40;6.25;;;13.10;99.90;;;;;;5073161;28;20485;-34
2023/04/08 10:08:06;;;;;;;9.68;6.55;;;13.20;99.90;;;;;;5073619;28;20482;-35
2023/04/08 10:10:39;;;;;;;11.10;6.38;;;13.30;99.90;;;;;;5074540;28;20099;-31
2023/04/08 10:13:06;;;;;;;12.02;6.22;;;13.40;99.90;;;;;;5074334;28;20484;-35
2023/04/08 10:15:33;;;;;;;10.48;6.32;;;13.50;99.90;;;;;;5068304;28;20082;-34
2023/04/08 10:18:03;;;;;;;17.35;7.63;;;13.60;99.90;;;;;;5067709;28;20029;-37
2023/04/08 10:20:35;;;;;;;10.95;5.90;;;13.70;99.90;;;;;;5069197;28;20542;-48
2023/04/08 10:23:01;;;;;;;11.98;6.78;;;13.80;99.90;;;;;;5072475;28;20033;-45
2023/04/08 10:25:28;;;;;;;10.35;5.80;;;13.90;99.90;;;;;;5074248;28;20103;-30
2023/04/08 10:27:53;;;;;;;11.05;6.25;;;14.20;99.90;;;;;;5073761;28;20031;-35
2023/04/08 10:30:30;;;;;;;8.20;5.97;;;14.20;99.90;;;;;;5074008;28;20020;-33
2023/04/08 10:33:00;;;;;;;7.68;5.30;;;14.30;99.90;;;;;;5074273;28;20056;-32
2023/04/08 10:35:34;;;;;;;8.40;5.68;;;14.40;99.90;;;;;;5073049;28;20478;-35
2023/04/08 10:38:00;;;;;;;10.18;5.00;;;14.40;99.90;;;;;;5073715;28;20488;-34
2023/04/08 10:40:26;;;;;;;7.97;4.85;;;14.40;99.90;;;;;;5064754;28;20369;-41
2023/04/08 10:42:59;;;;;;;11.00;5.75;;;14.60;99.90;;;;;;5060156;28;20025;-37
2023/04/08 10:45:24;;;;;;;8.07;5.55;;;14.70;99.90;;;;;;5073678;28;20025;-38
2023/04/08 10:47:50;;;;;;;9.60;4.85;;;15.00;99.90;;;;;;5068699;28;20497;-43
2023/04/08 10:50:19;;;;;;;6.72;5.30;;;15.10;99.90;;;;;;5064545;28;20021;-36
2023/04/08 10:52:48;;;;;;;7.53;5.13;;;15.10;99.90;;;;;;5072617;28;20028;-43
2023/04/08 10:55:15;;;;;;;9.07;5.40;;;15.10;99.90;;;;;;5057942;28;20542;-42
2023/04/08 10:57:41;;;;;;;8.65;5.25;;;15.00;99.90;;;;;;5066483;28;20484;-42
2023/04/08 11:00:10;;;;;;;9.45;5.60;;;14.70;99.90;;;;;;5069208;28;20023;-41
2023/04/08 11:02:39;;;;;;;12.63;5.45;;;14.60;99.90;;;;;;5073489;28;20115;-40
2023/04/08 11:05:05;;;;;;;10.57;5.15;;;14.60;99.90;;;;;;5073388;28;20029;-42
2023/04/08 11:07:31;;;;;;;6.65;5.15;;;14.80;99.90;;;;;;5073349;28;20032;-41
2023/04/08 11:10:01;;;;;;;9.13;5.32;;;15.10;99.90;;;;;;5073623;28;20024;-44
2023/04/08 11:12:27;;;;;;;11.68;5.25;;;15.10;99.90;;;;;;5073078;28;20052;-42
2023/04/08 11:14:53;;;;;;;8.20;5.47;;;15.10;99.90;;;;;;5071347;28;20071;-40
2023/04/08 11:17:19;;;;;;;12.93;5.47;;;15.10;99.90;;;;;;5069206;28;20024;-42
2023/04/08 11:19:45;;;;;;;15.32;5.50;;;15.20;99.90;;;;;;5073205;28;20021;-40
2023/04/08 11:22:12;;;;;;;12.68;6.22;;;15.40;99.60;;;;;;5073376;28;20484;-44
2023/04/08 11:24:38;;;;;;;9.75;5.35;;;15.60;99.90;;;;;;5072998;28;20020;-43
2023/04/08 11:27:07;;;;;;;8.40;5.60;;;15.60;99.90;;;;;;5064549;28;20021;-41
2023/04/08 11:29:33;;;;;;;8.80;5.35;;;15.60;99.90;;;;;;5068154;28;20035;-38
2023/04/08 11:31:59;;;;;;;9.63;5.20;;;15.60;99.60;;;;;;5067854;28;20021;-58
2023/04/08 11:34:25;;;;;;;11.02;5.38;;;15.50;99.90;;;;;;5060798;28;20078;-41
2023/04/08 11:36:52;;;;;;;9.25;5.40;;;15.40;99.90;;;;;;5073002;28;20512;-43
2023/04/08 11:39:21;;;;;;;8.93;4.97;;;15.50;99.90;;;;;;5071582;28;20070;-40
2023/04/08 11:41:47;;;;;;;10.68;4.90;;;15.70;99.90;;;;;;5053387;28;20016;-45
2023/04/08 11:44:12;;;;;;;7.22;4.80;;;15.80;99.90;;;;;;5070421;28;20138;-41
2023/04/08 11:46:39;;;;;;;11.60;5.32;;;16.00;99.90;;;;;;5065366;28;20036;-40
2023/04/08 11:49:06;;;;;;;9.98;5.22;;;16.10;99.90;;;;;;5072424;28;20028;-39
2023/04/08 11:51:34;;;;;;;10.15;5.65;;;16.10;99.90;;;;;;5065090;28;20462;-40
2023/04/08 11:54:04;;;;;;;9.10;4.85;;;16.20;98.50;;;;;;5052889;28;20037;-40
2023/04/08 11:56:42;;;;;;;8.82;5.20;;;16.10;99.00;;;;;;5062587;28;20129;-40
2023/04/08 11:59:08;;;;;;;;;;;15.90;99.90;;;;;;5073181;28;20044;-40
2023/04/08 12:01:34;;;;;;;10.68;5.57;;;15.80;99.90;;;;;;5072711;28;19908;-43
2023/04/08 12:04:00;;;;;;;8.50;4.85;;;15.90;99.30;;;;;;5072180;28;20063;-43
2023/04/08 12:06:28;;;;;;;3.85;3.15;;;15.80;99.60;;;;;;5055563;28;20029;-41
2023/04/08 12:08:55;;;;;;;7.72;4.78;;;15.80;99.90;;;;;;5053025;28;20503;-40
2023/04/08 12:11:21;;;;;;;9.77;6.00;;;16.00;99.90;;;;;;5052649;28;20443;-38
2023/04/08 12:13:48;;;;;;;12.10;5.85;;;16.20;98.70;;;;;;5052599;28;20082;-41
2023/04/08 12:16:14;;;;;;;9.15;6.18;;;16.20;99.20;;;;;;5055795;28;20446;-42
2023/04/08 12:18:39;;;;;;;7.55;5.10;;;16.30;99.90;;;;;;5072485;28;20021;-41
2023/04/08 12:21:05;;;;;;;9.35;5.57;;;16.40;99.40;;;;;;5072219;28;20116;-39
2023/04/08 12:23:31;;;;;;;10.48;5.57;;;16.40;99.90;;;;;;5071954;28;20028;-39
2023/04/08 12:25:57;;;;;;;17.65;6.18;;;16.30;99.90;;;;;;5072463;28;20036;-40
2023/04/08 12:28:22;;;;;;;8.07;5.70;;;16.30;99.90;;;;;;5072498;28;20480;-39
2023/04/08 12:30:48;;;;;;;10.10;5.55;;;16.10;99.90;;;;;;5072487;28;20063;-41
2023/04/08 12:33:13;;;;;;;10.88;5.53;;;16.20;99.70;;;;;;5071235;28;20066;-61
2023/04/08 12:35:39;;;;;;;8.15;5.40;;;16.30;99.40;;;;;;5058040;28;20116;-61
2023/04/08 12:38:05;;;;;;;8.77;5.10;;;16.20;99.50;;;;;;5070085;28;20027;-48
2023/04/08 12:40:31;;;;;;;12.18;5.95;;;16.40;99.90;;;;;;5072434;28;20511;-40
2023/04/08 12:42:56;;;;;;;9.57;5.32;;;16.60;99.10;;;;;;5072620;28;20028;-40